createdAt,value
2019-03-10T00:01:08.648Z,67.90
2019-03-10T00:03:36.987Z,67.80
2019-03-10T00:06:05.359Z,67.80
2019-03-10T00:08:33.663Z,68.00
2019-03-10T00:11:03.644Z,67.90
2019-03-10T00:13:32.079Z,68.00
2019-03-10T00:16:00.420Z,68.10
2019-03-10T00:18:28.714Z,68.10
2019-03-10T00:20:57.045Z,68.00
2019-03-10T00:23:25.317Z,68.70
2019-03-10T00:25:56.230Z,68.00
2019-03-10T00:28:24.666Z,68.80
2019-03-10T00:30:54.669Z,68.10
2019-03-10T00:33:23.046Z,68.00
2019-03-10T00:35:51.338Z,67.80
2019-03-10T00:38:19.781Z,67.90
2019-03-10T00:41:03.675Z,67.90
2019-03-10T00:43:49.807Z,68.10
2019-03-10T00:46:21.426Z,68.30
2019-03-10T00:49:12.838Z,68.10
2019-03-10T00:52:04.096Z,68.10
2019-03-10T00:54:32.480Z,68.30
2019-03-10T00:57:00.783Z,68.20
2019-03-10T00:59:29.151Z,68.10
2019-03-10T01:01:57.475Z,68.10
2019-03-10T01:04:25.767Z,68.10
2019-03-10T01:06:54.114Z,68.10
2019-03-10T01:09:22.531Z,68.20
2019-03-10T01:11:50.869Z,68.10
2019-03-10T01:14:19.345Z,68.20
2019-03-10T01:16:47.684Z,68.20
2019-03-10T01:19:16.590Z,68.10
2019-03-10T01:21:45.773Z,67.70
2019-03-10T01:24:14.149Z,68.20
2019-03-10T01:26:42.820Z,68.40
2019-03-10T01:29:11.062Z,68.60
2019-03-10T01:31:57.284Z,68.80
2019-03-10T01:34:37.822Z,68.90
2019-03-10T01:37:06.125Z,69.10
2019-03-10T01:39:37.243Z,69.20
2019-03-10T01:42:05.640Z,69.30
2019-03-10T01:44:33.890Z,69.40
2019-03-10T01:47:02.131Z,69.30
2019-03-10T01:49:30.460Z,69.40
2019-03-10T01:51:58.834Z,69.80
2019-03-10T01:54:27.182Z,69.80
2019-03-10T01:56:55.459Z,69.80
2019-03-10T01:59:25.892Z,69.80
2019-03-10T02:01:54.247Z,70.00
2019-03-10T02:04:22.499Z,70.00
2019-03-10T02:06:50.825Z,70.00
2019-03-10T02:09:19.102Z,70.00
2019-03-10T02:11:47.484Z,70.10
2019-03-10T02:14:15.840Z,70.20
2019-03-10T02:16:44.127Z,70.20
2019-03-10T02:19:12.403Z,70.30
2019-03-10T02:21:40.688Z,70.10
2019-03-10T02:24:08.963Z,70.90
2019-03-10T02:26:37.290Z,70.20
2019-03-10T02:29:05.674Z,70.40
2019-03-10T02:31:33.973Z,70.50
2019-03-10T02:34:02.279Z,70.40
2019-03-10T02:36:30.519Z,70.50
2019-03-10T02:38:58.848Z,70.70
2019-03-10T02:41:27.171Z,70.80
2019-03-10T02:43:55.486Z,71.00
2019-03-10T02:46:23.740Z,70.90
2019-03-10T02:48:52.040Z,70.90
2019-03-10T02:51:20.315Z,71.00
2019-03-10T02:53:48.574Z,71.00
2019-03-10T02:56:16.870Z,71.10
2019-03-10T02:58:45.166Z,71.70
2019-03-10T03:01:13.440Z,71.00
2019-03-10T03:03:41.698Z,70.80
2019-03-10T03:06:10.004Z,70.70
2019-03-10T03:08:38.277Z,70.60
2019-03-10T03:11:06.588Z,70.20
2019-03-10T03:13:34.896Z,69.70
2019-03-10T03:16:03.235Z,69.50
2019-03-10T03:18:31.531Z,69.20
2019-03-10T03:20:59.887Z,68.20
2019-03-10T03:23:28.220Z,64.90
2019-03-10T03:25:56.576Z,62.00
2019-03-10T03:28:24.916Z,59.40
2019-03-10T03:30:53.205Z,57.40
2019-03-10T03:33:21.615Z,57.40
2019-03-10T03:35:51.950Z,55.50
2019-03-10T03:38:41.738Z,54.30
2019-03-10T03:41:12.755Z,54.40
2019-03-10T03:43:41.095Z,55.90
2019-03-10T03:46:09.393Z,58.00
2019-03-10T03:48:37.673Z,60.60
2019-03-10T03:51:06.070Z,64.70
2019-03-10T03:53:34.316Z,67.40
2019-03-10T03:56:02.680Z,67.70
2019-03-10T03:58:30.927Z,69.50
2019-03-10T04:01:08.350Z,71.20
2019-03-10T04:03:36.670Z,71.70
2019-03-10T04:06:05.009Z,73.20
2019-03-10T04:08:33.286Z,73.20
2019-03-10T04:11:01.636Z,73.90
2019-03-10T04:13:29.941Z,74.20
2019-03-10T04:15:58.273Z,74.10
2019-03-10T04:18:26.649Z,75.20
2019-03-10T04:20:55.010Z,76.00
2019-03-10T04:23:23.330Z,77.00
2019-03-10T04:25:51.704Z,76.80
2019-03-10T04:28:20.058Z,77.50
2019-03-10T04:30:48.346Z,77.80
2019-03-10T04:33:16.666Z,77.60
2019-03-10T04:35:44.929Z,78.30
2019-03-10T04:38:13.208Z,78.70
2019-03-10T04:40:41.600Z,79.40
2019-03-10T04:43:11.000Z,80.40
2019-03-10T04:45:39.282Z,81.70
2019-03-10T04:48:07.536Z,82.10
2019-03-10T04:50:35.831Z,83.00
2019-03-10T04:53:04.122Z,83.80
2019-03-10T04:55:52.302Z,83.30
2019-03-10T04:58:22.231Z,83.80
2019-03-10T05:00:52.115Z,84.50
2019-03-10T05:03:20.371Z,84.80
2019-03-10T05:05:48.612Z,84.60
2019-03-10T05:08:16.918Z,86.40
2019-03-10T05:10:45.201Z,85.30
2019-03-10T05:13:13.630Z,85.90
2019-03-10T05:15:41.942Z,86.20
2019-03-10T05:18:10.236Z,86.80
2019-03-10T05:20:38.556Z,86.60
2019-03-10T05:23:26.817Z,86.60
2019-03-10T05:25:55.779Z,86.50
2019-03-10T05:28:24.022Z,86.50
2019-03-10T05:30:52.466Z,86.90
2019-03-10T05:33:20.816Z,87.10
2019-03-10T05:35:49.057Z,87.00
2019-03-10T05:38:17.441Z,87.30
2019-03-10T05:40:45.763Z,87.60
2019-03-10T05:43:14.083Z,87.90
2019-03-10T05:45:42.336Z,87.90
2019-03-10T05:48:10.684Z,88.70
2019-03-10T05:50:38.990Z,88.40
2019-03-10T05:53:07.251Z,88.50
2019-03-10T05:55:35.592Z,88.70
2019-03-10T05:58:03.913Z,89.30
2019-03-10T06:00:42.249Z,89.40
2019-03-10T06:03:02.264Z,89.20
2019-03-10T06:05:30.621Z,89.40
2019-03-10T06:07:58.986Z,89.50
2019-03-10T06:10:28.393Z,89.50
2019-03-10T06:12:56.725Z,89.20
2019-03-10T06:15:24.998Z,89.80
2019-03-10T06:17:53.335Z,89.80
2019-03-10T06:20:21.756Z,89.70
2019-03-10T06:22:50.234Z,89.70
2019-03-10T06:25:20.242Z,90.00
2019-03-10T06:27:48.640Z,89.90
2019-03-10T06:30:16.994Z,90.10
2019-03-10T06:32:45.350Z,90.20
2019-03-10T06:35:13.599Z,90.10
2019-03-10T06:37:41.834Z,90.40
2019-03-10T06:40:10.122Z,90.40
2019-03-10T06:42:38.412Z,90.20
2019-03-10T06:45:07.176Z,90.40
2019-03-10T06:47:35.457Z,90.40
2019-03-10T06:50:05.761Z,90.60
2019-03-10T06:52:34.065Z,90.80
2019-03-10T06:55:02.327Z,90.70
2019-03-10T06:57:30.626Z,91.00
2019-03-10T06:59:58.985Z,90.90
2019-03-10T07:02:27.263Z,90.90
2019-03-10T07:04:55.534Z,90.70
2019-03-10T07:07:23.841Z,90.80
2019-03-10T07:09:52.094Z,90.70
2019-03-10T07:12:20.353Z,90.70
2019-03-10T07:14:48.610Z,90.50
2019-03-10T07:17:16.826Z,90.70
2019-03-10T07:19:45.131Z,90.90
2019-03-10T07:22:13.906Z,90.70
2019-03-10T07:24:42.173Z,90.80
2019-03-10T07:27:10.421Z,90.30
2019-03-10T07:29:40.320Z,90.70
2019-03-10T07:32:18.906Z,90.70
2019-03-10T07:34:48.806Z,90.60
2019-03-10T07:37:20.339Z,90.60
2019-03-10T07:40:06.631Z,90.50
2019-03-10T07:42:39.483Z,90.50
2019-03-10T07:45:16.398Z,90.70
2019-03-10T07:47:46.351Z,91.00
2019-03-10T07:50:16.401Z,90.90
2019-03-10T07:52:46.306Z,90.80
2019-03-10T07:55:19.191Z,91.00
2019-03-10T07:57:51.563Z,90.80
2019-03-10T08:00:21.466Z,90.50
2019-03-10T08:03:06.126Z,90.80
2019-03-10T08:05:45.261Z,90.80
2019-03-10T08:08:15.167Z,90.50
2019-03-10T08:10:45.148Z,90.60
2019-03-10T08:13:30.092Z,90.00
2019-03-10T08:16:05.744Z,89.80
2019-03-10T08:18:50.716Z,89.50
2019-03-10T08:21:37.847Z,89.30
2019-03-10T08:24:03.320Z,87.60
2019-03-10T08:26:39.197Z,87.70
2019-03-10T08:29:27.530Z,86.40
2019-03-10T08:34:58.247Z,84.80
2019-03-10T08:40:35.972Z,85.00
2019-03-10T08:43:09.094Z,84.40
2019-03-10T08:45:39.124Z,83.40
2019-03-10T08:48:11.905Z,83.10
2019-03-10T08:50:41.926Z,83.30
2019-03-10T08:53:26.791Z,82.80
2019-03-10T08:55:56.727Z,81.90
2019-03-10T08:58:35.918Z,81.80
2019-03-10T09:01:05.879Z,81.50
2019-03-10T09:03:45.004Z,81.00
2019-03-10T09:06:17.825Z,81.10
2019-03-10T09:09:07.268Z,81.30
2019-03-10T09:11:37.182Z,81.00
2019-03-10T09:14:16.076Z,80.50
2019-03-10T09:16:54.924Z,81.50
2019-03-10T09:19:27.683Z,81.30
2019-03-10T09:22:00.090Z,81.90
2019-03-10T09:24:35.314Z,81.30
2019-03-10T09:27:11.061Z,83.30
2019-03-10T09:29:44.072Z,83.00
2019-03-10T09:32:23.089Z,82.50
2019-03-10T09:34:59.132Z,83.70
2019-03-10T09:37:29.001Z,85.00
2019-03-10T09:40:17.215Z,85.40
2019-03-10T09:42:47.100Z,84.10
2019-03-10T09:45:25.915Z,84.10
2019-03-10T09:48:12.123Z,84.30
2019-03-10T09:50:50.937Z,85.10
2019-03-10T09:53:38.901Z,85.10
2019-03-10T09:56:14.449Z,85.30
2019-03-10T09:58:44.296Z,83.90
2019-03-10T10:01:31.939Z,85.30
2019-03-10T10:04:04.608Z,85.80
2019-03-10T10:06:37.269Z,87.20
2019-03-10T10:09:08.109Z,88.20
2019-03-10T10:11:50.065Z,89.00
2019-03-10T10:14:22.890Z,89.30
2019-03-10T10:16:52.753Z,88.90
2019-03-10T10:19:38.768Z,89.70
2019-03-10T10:22:17.111Z,89.80
2019-03-10T10:24:47.071Z,87.60
2019-03-10T10:27:29.009Z,88.40
2019-03-10T10:30:01.912Z,89.80
2019-03-10T10:32:37.545Z,89.70
2019-03-10T10:35:26.158Z,89.60
2019-03-10T10:38:18.534Z,90.00
2019-03-10T10:40:58.633Z,89.50
2019-03-10T10:43:28.485Z,90.50
2019-03-10T10:45:58.371Z,90.20
2019-03-10T10:48:30.921Z,90.50
2019-03-10T10:51:00.797Z,90.80
2019-03-10T10:53:36.584Z,90.70
2019-03-10T10:56:15.736Z,90.90
2019-03-10T10:58:51.899Z,90.70
2019-03-10T11:01:24.931Z,90.60
2019-03-10T11:03:54.955Z,90.70
2019-03-10T11:06:24.881Z,91.00
2019-03-10T11:08:54.802Z,90.70
2019-03-10T11:11:41.968Z,90.40
2019-03-10T11:14:18.027Z,90.20
2019-03-10T11:17:06.160Z,90.20
2019-03-10T11:19:39.131Z,90.50
2019-03-10T11:22:11.775Z,90.80
2019-03-10T11:24:41.685Z,90.40
2019-03-10T11:27:17.371Z,90.10
2019-03-10T11:29:50.215Z,89.70
2019-03-10T11:32:32.264Z,90.30
2019-03-10T11:35:07.787Z,89.50
2019-03-10T11:37:43.466Z,89.40
2019-03-10T11:40:13.339Z,90.00
2019-03-10T11:42:44.902Z,90.10
2019-03-10T11:45:32.826Z,90.10
2019-03-10T11:48:11.535Z,89.00
2019-03-10T11:50:47.507Z,88.80
2019-03-10T11:53:25.469Z,87.40
2019-03-10T11:56:12.772Z,88.40
2019-03-10T11:58:45.659Z,88.30
2019-03-10T12:01:15.602Z,88.20
2019-03-10T12:03:49.040Z,87.40
2019-03-10T12:06:24.750Z,85.30
2019-03-10T12:08:57.590Z,84.30
2019-03-10T12:11:25.807Z,84.10
2019-03-10T12:13:54.291Z,83.60
2019-03-10T12:16:22.600Z,84.80
2019-03-10T12:18:50.919Z,84.30
2019-03-10T12:21:19.158Z,84.40
2019-03-10T12:23:47.419Z,83.50
2019-03-10T12:26:15.787Z,83.50
2019-03-10T12:28:44.035Z,82.00
2019-03-10T12:31:12.297Z,82.20
2019-03-10T12:33:40.530Z,79.80
2019-03-10T12:36:08.834Z,81.10
2019-03-10T12:38:37.066Z,78.40
2019-03-10T12:41:05.317Z,78.50
2019-03-10T12:43:33.588Z,76.30
2019-03-10T12:46:01.871Z,76.10
2019-03-10T12:48:30.106Z,76.20
2019-03-10T12:50:58.448Z,74.60
2019-03-10T12:53:26.709Z,74.20
2019-03-10T12:55:55.034Z,73.30
2019-03-10T12:58:23.278Z,74.70
2019-03-10T13:00:51.524Z,73.90
2019-03-10T13:03:19.786Z,73.50
2019-03-10T13:05:48.027Z,72.90
2019-03-10T13:08:16.267Z,73.80
2019-03-10T13:10:44.509Z,73.40
2019-03-10T13:13:12.762Z,73.50
2019-03-10T13:15:41.007Z,73.00
2019-03-10T13:18:09.247Z,73.30
2019-03-10T13:20:37.685Z,73.10
2019-03-10T13:23:05.994Z,73.00
2019-03-10T13:25:34.294Z,72.60
2019-03-10T13:28:03.143Z,72.50
2019-03-10T13:30:31.451Z,70.10
2019-03-10T13:32:59.701Z,68.50
2019-03-10T13:35:27.926Z,67.20
2019-03-10T13:37:56.141Z,65.90
2019-03-10T13:40:24.370Z,65.50
2019-03-10T13:42:52.620Z,66.10
2019-03-10T13:45:20.829Z,67.60
2019-03-10T13:47:49.063Z,67.20
2019-03-10T13:50:17.320Z,66.10
2019-03-10T13:52:45.551Z,65.60
2019-03-10T13:55:13.770Z,66.20
2019-03-10T13:57:42.032Z,66.10
2019-03-10T14:00:20.010Z,64.80
2019-03-10T14:02:51.398Z,63.60
2019-03-10T14:05:19.213Z,63.40
2019-03-10T14:07:47.434Z,62.80
2019-03-10T14:10:15.683Z,61.50
2019-03-10T14:12:43.908Z,59.60
2019-03-10T14:15:13.497Z,60.30
2019-03-10T14:17:41.757Z,60.30
2019-03-10T14:20:14.086Z,59.90
2019-03-10T14:22:42.331Z,59.90
2019-03-10T14:25:11.809Z,59.40
2019-03-10T14:27:40.038Z,59.20
2019-03-10T14:30:11.499Z,58.30
2019-03-10T14:32:39.774Z,58.20
2019-03-10T14:35:09.750Z,57.20
2019-03-10T14:37:37.955Z,56.50
2019-03-10T14:40:11.618Z,55.70
2019-03-10T14:42:39.848Z,55.80
2019-03-10T14:45:11.337Z,56.50
2019-03-10T14:47:39.604Z,56.60
2019-03-10T14:50:10.395Z,56.80
2019-03-10T14:52:38.618Z,57.10
2019-03-10T14:55:14.351Z,57.50
2019-03-10T14:57:42.581Z,58.10
2019-03-10T15:02:43.823Z,56.80
2019-03-10T15:05:12.067Z,57.80
2019-03-10T15:07:40.273Z,57.80
2019-03-10T15:10:19.089Z,58.60
2019-03-10T15:12:47.465Z,58.40
2019-03-10T15:15:22.463Z,58.80
2019-03-10T15:17:46.662Z,58.20
2019-03-10T15:20:15.973Z,58.60
2019-03-10T15:22:45.906Z,59.00
2019-03-10T15:25:16.624Z,59.70
2019-03-10T15:27:49.507Z,60.40
2019-03-10T15:30:22.933Z,59.80
2019-03-10T15:35:19.152Z,58.20
2019-03-10T15:37:47.426Z,59.40
2019-03-10T15:40:17.731Z,59.20
2019-03-10T15:42:46.003Z,59.40
2019-03-10T15:45:16.439Z,59.30
2019-03-10T15:47:44.696Z,59.80
2019-03-10T15:50:27.137Z,60.20
2019-03-10T15:52:55.353Z,60.40
2019-03-10T15:55:23.594Z,65.90
2019-03-10T15:57:51.808Z,70.70
2019-03-10T16:00:24.476Z,74.20
2019-03-10T16:02:52.693Z,76.60
2019-03-10T16:05:20.925Z,78.20
2019-03-10T16:07:49.178Z,79.00
2019-03-10T16:10:17.382Z,76.00
2019-03-10T16:12:45.646Z,76.00
2019-03-10T16:15:18.846Z,75.70
2019-03-10T16:17:47.085Z,74.70
2019-03-10T16:20:15.420Z,74.70
2019-03-10T16:22:43.646Z,74.90
2019-03-10T16:25:17.030Z,74.10
2019-03-10T16:27:45.279Z,73.50
2019-03-10T16:30:25.013Z,73.00
2019-03-10T16:32:53.237Z,72.80
2019-03-10T16:35:22.491Z,74.00
2019-03-10T16:37:50.875Z,74.90
2019-03-10T16:40:21.086Z,74.70
2019-03-10T16:42:49.439Z,73.60
2019-03-10T16:45:22.676Z,71.50
2019-03-10T16:47:50.989Z,69.80
2019-03-10T16:50:20.256Z,69.10
2019-03-10T16:52:48.536Z,66.80
2019-03-10T16:55:16.778Z,66.10
2019-03-10T16:57:45.072Z,66.40
2019-03-10T17:00:13.330Z,65.00
2019-03-10T17:02:43.250Z,63.80
2019-03-10T17:05:15.705Z,63.80
2019-03-10T17:07:44.228Z,64.80
2019-03-10T17:10:23.465Z,65.20
2019-03-10T17:12:51.702Z,66.20
2019-03-10T17:15:23.671Z,65.80
2019-03-10T17:17:51.933Z,64.90
2019-03-10T17:20:20.200Z,65.00
2019-03-10T17:22:48.542Z,65.20
2019-03-10T17:25:18.790Z,64.60
2019-03-10T17:27:47.021Z,61.70
2019-03-10T17:30:19.687Z,62.10
2019-03-10T17:32:48.805Z,63.60
2019-03-10T17:35:17.562Z,65.10
2019-03-10T17:37:48.234Z,64.00
2019-03-10T17:40:22.708Z,65.10
2019-03-10T17:42:50.940Z,65.50
2019-03-10T17:45:20.027Z,65.70
2019-03-10T17:47:48.257Z,64.20
2019-03-10T17:50:17.546Z,63.80
2019-03-10T17:52:45.893Z,62.70
2019-03-10T17:55:24.190Z,61.20
2019-03-10T17:57:52.393Z,60.70
2019-03-10T18:00:22.884Z,61.10
2019-03-10T18:02:53.979Z,60.00
2019-03-10T18:05:22.205Z,60.10
2019-03-10T18:07:50.507Z,60.10
2019-03-10T18:10:18.793Z,60.70
2019-03-10T18:12:47.072Z,61.20
2019-03-10T18:15:16.770Z,61.90
2019-03-10T18:17:46.752Z,61.60
2019-03-10T18:20:23.048Z,62.90
2019-03-10T18:22:51.362Z,62.50
2019-03-10T18:25:19.649Z,62.50
2019-03-10T18:27:47.959Z,62.00
2019-03-10T18:30:24.899Z,61.50
2019-03-10T18:32:54.134Z,60.80
2019-03-10T18:35:22.410Z,60.20
2019-03-10T18:37:50.734Z,59.20
2019-03-10T18:40:20.708Z,58.90
2019-03-10T18:42:49.037Z,58.10
2019-03-10T18:45:18.312Z,58.00
2019-03-10T18:47:46.600Z,58.10
2019-03-10T18:50:19.238Z,58.20
2019-03-10T18:52:47.626Z,58.10
2019-03-10T18:55:19.222Z,57.40
2019-03-10T18:57:47.634Z,57.50
2019-03-10T19:00:30.187Z,58.00
2019-03-10T19:03:00.118Z,58.40
2019-03-10T19:05:30.051Z,58.20
2019-03-10T19:07:58.290Z,58.30
2019-03-10T19:10:26.661Z,58.60
2019-03-10T19:12:54.892Z,58.70
2019-03-10T19:15:25.498Z,58.80
2019-03-10T19:17:53.779Z,59.30
2019-03-10T19:20:22.088Z,59.00
2019-03-10T19:22:50.488Z,59.60
2019-03-10T19:25:18.859Z,59.60
2019-03-10T19:27:47.220Z,60.10
2019-03-10T19:30:22.066Z,60.50
2019-03-10T19:32:51.552Z,60.30
2019-03-10T19:35:19.907Z,60.80
2019-03-10T19:37:48.201Z,61.20
2019-03-10T19:40:18.675Z,61.70
2019-03-10T19:42:46.996Z,62.10
2019-03-10T19:45:27.855Z,62.40
2019-03-10T19:48:06.147Z,62.80
2019-03-10T19:50:45.471Z,63.30
2019-03-10T19:53:23.626Z,63.40
2019-03-10T19:55:51.932Z,63.10
2019-03-10T19:58:23.562Z,63.20
2019-03-10T20:00:53.527Z,63.00
2019-03-10T20:03:31.415Z,62.80
2019-03-10T20:06:03.130Z,63.20
2019-03-10T20:08:31.353Z,63.40
2019-03-10T20:10:59.667Z,62.60
2019-03-10T20:13:28.060Z,62.00
2019-03-10T20:16:00.137Z,61.40
2019-03-10T20:18:32.635Z,60.70
2019-03-10T20:21:03.837Z,61.10
2019-03-10T20:23:46.130Z,60.90
2019-03-10T20:26:14.582Z,60.40
2019-03-10T20:28:53.024Z,60.80
2019-03-10T20:31:27.414Z,60.40
2019-03-10T20:33:52.518Z,60.30
2019-03-10T20:36:33.680Z,59.70
2019-03-10T20:39:08.198Z,59.20
2019-03-10T20:41:49.022Z,59.10
2019-03-10T20:44:17.394Z,58.40
2019-03-10T20:46:45.814Z,57.90
2019-03-10T20:49:15.982Z,57.50
2019-03-10T20:51:46.931Z,57.30
2019-03-10T20:54:26.489Z,57.20
2019-03-10T20:57:02.209Z,57.20
2019-03-10T20:59:45.908Z,57.80
2019-03-10T21:02:23.136Z,57.80
2019-03-10T21:04:51.947Z,58.30
2019-03-10T21:07:27.701Z,58.40
2019-03-10T21:09:59.129Z,59.10
2019-03-10T21:12:39.463Z,59.40
2019-03-10T21:15:11.981Z,59.50
2019-03-10T21:17:41.303Z,59.30
2019-03-10T21:20:22.808Z,59.10
2019-03-10T21:22:51.258Z,59.70
2019-03-10T21:25:24.719Z,60.70
2019-03-10T21:27:52.996Z,60.50
2019-03-10T21:30:26.709Z,60.80
2019-03-10T21:32:55.028Z,60.90
2019-03-10T21:35:23.366Z,61.80
2019-03-10T21:37:51.721Z,62.70
2019-03-10T21:40:30.814Z,63.10
2019-03-10T21:42:59.130Z,62.50
2019-03-10T21:45:27.456Z,62.40
2019-03-10T21:47:55.811Z,62.90
2019-03-10T21:50:26.969Z,62.70
2019-03-10T21:52:55.338Z,63.80
2019-03-10T21:55:23.738Z,64.40
2019-03-10T21:57:52.061Z,64.60
2019-03-10T22:00:20.781Z,65.10
2019-03-10T22:02:49.154Z,68.70
2019-03-10T22:05:17.867Z,70.40
2019-03-10T22:07:46.294Z,73.20
2019-03-10T22:10:26.119Z,73.50
2019-03-10T22:12:47.904Z,73.70
2019-03-10T22:15:22.789Z,73.80
2019-03-10T22:17:51.105Z,73.40
2019-03-10T22:20:20.131Z,73.90
2019-03-10T22:22:49.799Z,73.20
2019-03-10T22:25:18.588Z,73.60
2019-03-10T22:27:46.929Z,73.30
2019-03-10T22:30:19.216Z,73.70
2019-03-10T22:32:47.566Z,73.00
2019-03-10T22:35:15.796Z,73.10
2019-03-10T22:37:44.099Z,72.70
2019-03-10T22:40:16.427Z,72.60
2019-03-10T22:42:44.680Z,72.20
2019-03-10T22:45:15.415Z,71.70
2019-03-10T22:47:44.709Z,71.50
2019-03-10T22:50:14.033Z,71.60
2019-03-10T22:52:42.352Z,71.70
2019-03-10T22:55:11.681Z,70.60
2019-03-10T22:57:40.022Z,70.00
2019-03-10T23:00:13.906Z,68.80
2019-03-10T23:02:42.201Z,67.30
2019-03-10T23:05:10.568Z,67.50
2019-03-10T23:07:38.950Z,67.30
2019-03-10T23:10:10.158Z,66.60
2019-03-10T23:12:38.591Z,65.80
2019-03-10T23:15:08.812Z,65.70
2019-03-10T23:17:38.737Z,65.00
2019-03-10T23:20:10.354Z,65.10
2019-03-10T23:22:38.636Z,65.30
2019-03-10T23:25:06.898Z,64.90
2019-03-10T23:27:35.222Z,65.20
2019-03-10T23:30:03.598Z,64.50
2019-03-10T23:32:31.903Z,64.90
2019-03-10T23:35:00.321Z,66.60
2019-03-10T23:37:28.662Z,69.10
2019-03-10T23:39:57.028Z,69.40
2019-03-10T23:42:26.998Z,70.20
2019-03-10T23:44:56.890Z,69.80
2019-03-10T23:47:25.530Z,70.00
2019-03-10T23:49:53.812Z,69.90
2019-03-10T23:52:22.095Z,69.70
2019-03-10T23:54:50.488Z,69.00
2019-03-10T23:57:18.849Z,68.30
2019-03-10T23:59:47.165Z,68.80
